Time;durP1;ratioP1;P1;durP2;ratioP2;P2;SDS_P1;SDS_P2;PMS_P1;PMS_P2;Temp;Humidity;BMP_temperature;BMP_pressure;BME280_temperature;BME280_humidity;BME280_pressure;Samples;Min_cycle;Max_cycle;Signal;HPM_P1;HPM_P2
2023/05/11 00:01:54;;;;;;;0.50;0.50;;;;;;;;;;5081572;28;20179;-86
2023/05/11 00:04:20;;;;;;;0.50;0.50;;;;;;;;;;5080735;28;20228;-86
2023/05/11 00:06:46;;;;;;;0.53;0.53;;;;;;;;;;5081790;28;20170;-86
2023/05/11 00:09:12;;;;;;;0.50;0.50;;;;;;;;;;5080459;28;20173;-86
2023/05/11 00:11:38;;;;;;;0.43;0.43;;;;;;;;;;5081990;28;20244;-86
2023/05/11 00:14:04;;;;;;;0.50;0.50;;;;;;;;;;5081923;28;20254;-87
2023/05/11 00:16:30;;;;;;;0.50;0.50;;;;;;;;;;5082062;28;20644;-85
2023/05/11 00:18:56;;;;;;;0.50;0.50;;;;;;;;;;5083040;28;20183;-86
2023/05/11 00:21:22;;;;;;;0.50;0.50;;;;;;;;;;5073827;28;20175;-86
2023/05/11 00:23:48;;;;;;;0.40;0.40;;;;;;;;;;5063100;28;20255;-86
2023/05/11 00:26:14;;;;;;;0.60;0.60;;;;;;;;;;5063747;28;20243;-87
2023/05/11 00:28:40;;;;;;;0.40;0.40;;;;;;;;;;5072240;28;20218;-87
2023/05/11 00:31:06;;;;;;;0.53;0.53;;;;;;;;;;5078175;28;20199;-87
2023/05/11 00:33:32;;;;;;;0.40;0.40;;;;;;;;;;5074838;28;20294;-86
2023/05/11 00:35:58;;;;;;;0.50;0.50;;;;;;;;;;5061899;28;20171;-85
2023/05/11 00:38:24;;;;;;;0.50;0.50;;;;;;;;;;5061990;28;20265;-86
2023/05/11 00:40:51;;;;;;;0.50;0.50;;;;;;;;;;5061050;28;20545;-86
2023/05/11 00:43:17;;;;;;;0.50;0.50;;;;;;;;;;5061299;28;20189;-86
2023/05/11 00:45:46;;;;;;;0.50;0.50;;;;;;;;;;5061967;28;20781;-86
2023/05/11 00:48:12;;;;;;;0.50;0.50;;;;;;;;;;5061296;28;20186;-86
2023/05/11 00:50:39;;;;;;;0.63;0.63;;;;;;;;;;5061634;28;20675;-85
2023/05/11 00:53:04;;;;;;;0.43;0.43;;;;;;;;;;5061505;28;20179;-86
2023/05/11 00:55:30;;;;;;;0.50;0.50;;;;;;;;;;5061859;28;20233;-85
2023/05/11 00:57:57;;;;;;;0.50;0.50;;;;;;;;;;5062091;28;20713;-86
2023/05/11 01:00:23;;;;;;;0.60;0.60;;;;;;;;;;5061288;28;20202;-85
2023/05/11 01:02:49;;;;;;;0.40;0.40;;;;;;;;;;5061358;28;20171;-86
2023/05/11 01:05:15;;;;;;;0.50;0.50;;;;;;;;;;5061571;28;20199;-86
2023/05/11 01:07:47;;;;;;;0.50;0.50;;;;;;;;;;5061861;28;20510;-86
2023/05/11 01:10:25;;;;;;;0.50;0.50;;;;;;;;;;5062049;28;20737;-86
2023/05/11 01:13:03;;;;;;;0.53;0.53;;;;;;;;;;5061465;28;20183;-85
2023/05/11 01:15:48;;;;;;;0.53;0.53;;;;;;;;;;5061831;28;20690;-86
2023/05/11 01:18:20;;;;;;;0.50;0.50;;;;;;;;;;5062325;28;20552;-86
2023/05/11 01:20:47;;;;;;;0.60;0.60;;;;;;;;;;5060910;28;20175;-87
2023/05/11 01:23:27;;;;;;;0.50;0.50;;;;;;;;;;5062091;28;20178;-86
2023/05/11 01:26:06;;;;;;;0.50;0.50;;;;;;;;;;5062184;28;20278;-86
2023/05/11 01:28:50;;;;;;;0.50;0.50;;;;;;;;;;5061322;28;20175;-86
2023/05/11 01:31:17;;;;;;;0.50;0.50;;;;;;;;;;5061350;28;20215;-86
2023/05/11 01:33:47;;;;;;;0.50;0.50;;;;;;;;;;5061952;28;20211;-86
2023/05/11 01:36:14;;;;;;;0.50;0.50;;;;;;;;;;5062268;28;20183;-86
2023/05/11 01:38:41;;;;;;;0.40;0.40;;;;;;;;;;5062891;28;20544;-86
2023/05/11 01:41:15;;;;;;;0.50;0.50;;;;;;;;;;5062128;28;20207;-86
2023/05/11 01:43:43;;;;;;;0.60;0.60;;;;;;;;;;5058366;28;20202;-87
2023/05/11 01:46:10;;;;;;;0.40;0.40;;;;;;;;;;5055811;28;20278;-85
2023/05/11 01:48:38;;;;;;;0.60;0.60;;;;;;;;;;5055165;28;20205;-85
2023/05/11 01:51:04;;;;;;;0.60;0.60;;;;;;;;;;5054859;28;20218;-86
2023/05/11 01:53:32;;;;;;;0.57;0.57;;;;;;;;;;5054712;28;20179;-86
2023/05/11 01:55:59;;;;;;;0.53;0.53;;;;;;;;;;5055350;28;20179;-86
2023/05/11 01:58:27;;;;;;;0.50;0.50;;;;;;;;;;5054767;28;20175;-84
2023/05/11 02:00:54;;;;;;;0.60;0.60;;;;;;;;;;5055299;28;20240;-86
2023/05/11 02:03:21;;;;;;;0.70;0.70;;;;;;;;;;5054507;28;20187;-85
2023/05/11 02:05:47;;;;;;;0.50;0.50;;;;;;;;;;5055788;28;20201;-85
2023/05/11 02:08:14;;;;;;;0.50;0.50;;;;;;;;;;5056519;28;20236;-86
2023/05/11 02:10:41;;;;;;;0.60;0.60;;;;;;;;;;5055775;28;20236;-86
2023/05/11 02:13:08;;;;;;;0.60;0.60;;;;;;;;;;5055742;28;20264;-86
2023/05/11 02:15:37;;;;;;;0.50;0.50;;;;;;;;;;5066951;28;20198;-83
2023/05/11 02:18:04;;;;;;;0.50;0.50;;;;;;;;;;5076191;28;20163;-84
2023/05/11 02:20:30;;;;;;;0.50;0.50;;;;;;;;;;5076175;28;20195;-84
2023/05/11 02:22:56;;;;;;;0.50;0.50;;;;;;;;;;5074312;28;20183;-85
2023/05/11 02:25:23;;;;;;;0.50;0.50;;;;;;;;;;5073762;28;20254;-84
2023/05/11 02:27:49;;;;;;;0.47;0.47;;;;;;;;;;5062658;28;20330;-85
2023/05/11 02:30:15;;;;;;;0.50;0.50;;;;;;;;;;5052738;28;20739;-85
2023/05/11 02:32:43;;;;;;;0.60;0.60;;;;;;;;;;5052580;28;20195;-85
2023/05/11 02:35:12;;;;;;;0.57;0.57;;;;;;;;;;5053255;28;20195;-85
2023/05/11 02:37:41;;;;;;;0.50;0.50;;;;;;;;;;5053096;28;20172;-85
2023/05/11 02:40:10;;;;;;;0.57;0.57;;;;;;;;;;5054444;28;20172;-85
2023/05/11 02:42:37;;;;;;;0.50;0.50;;;;;;;;;;5056111;28;20652;-85
2023/05/11 02:45:05;;;;;;;0.60;0.60;;;;;;;;;;5056933;28;20221;-84
2023/05/11 02:47:32;;;;;;;0.60;0.60;;;;;;;;;;5056807;28;20190;-85
2023/05/11 02:50:00;;;;;;;0.50;0.50;;;;;;;;;;5056281;28;20725;-85
2023/05/11 02:52:27;;;;;;;0.50;0.50;;;;;;;;;;5055211;28;20269;-85
2023/05/11 02:57:38;;;;;;;0.60;0.60;;;;;;;;;;5054784;28;20186;-85
2023/05/11 03:00:04;;;;;;;0.50;0.50;;;;;;;;;;5057019;28;20533;-85
2023/05/11 03:02:30;;;;;;;0.70;0.70;;;;;;;;;;5054987;28;20548;-85
2023/05/11 03:04:56;;;;;;;0.60;0.60;;;;;;;;;;5055956;28;20195;-85
2023/05/11 03:07:22;;;;;;;0.60;0.60;;;;;;;;;;5056747;28;20544;-85
2023/05/11 03:09:48;;;;;;;0.50;0.50;;;;;;;;;;5054422;28;20187;-85
2023/05/11 03:12:14;;;;;;;0.50;0.50;;;;;;;;;;5055471;28;20358;-85
2023/05/11 03:14:40;;;;;;;0.60;0.60;;;;;;;;;;5055893;28;20191;-85
2023/05/11 03:17:07;;;;;;;0.50;0.50;;;;;;;;;;5055699;28;20195;-85
2023/05/11 03:19:33;;;;;;;0.50;0.50;;;;;;;;;;5055963;28;20183;-83
2023/05/11 03:22:00;;;;;;;0.60;0.60;;;;;;;;;;5055941;28;20653;-84
2023/05/11 03:24:26;;;;;;;0.50;0.50;;;;;;;;;;5055458;28;20226;-85
2023/05/11 03:26:56;;;;;;;0.53;0.53;;;;;;;;;;5055672;28;20267;-86
2023/05/11 03:29:23;;;;;;;0.50;0.50;;;;;;;;;;5055053;28;20228;-86
2023/05/11 03:31:50;;;;;;;0.50;0.50;;;;;;;;;;5056882;28;20223;-85
2023/05/11 03:34:16;;;;;;;0.60;0.60;;;;;;;;;;5056527;28;20286;-85
2023/05/11 03:36:42;;;;;;;0.60;0.60;;;;;;;;;;5056553;28;20199;-86
2023/05/11 03:39:08;;;;;;;0.50;0.50;;;;;;;;;;5056137;28;20179;-84
2023/05/11 03:41:34;;;;;;;0.60;0.60;;;;;;;;;;5055928;28;20179;-85
2023/05/11 03:44:02;;;;;;;0.50;0.50;;;;;;;;;;5054925;28;20747;-85
2023/05/11 03:46:29;;;;;;;0.50;0.50;;;;;;;;;;5055122;28;20179;-86
2023/05/11 03:48:55;;;;;;;0.57;0.57;;;;;;;;;;5055028;28;20190;-86
2023/05/11 03:51:21;;;;;;;0.40;0.40;;;;;;;;;;5054010;28;20704;-85
2023/05/11 03:53:47;;;;;;;0.50;0.50;;;;;;;;;;5054355;28;20285;-85
2023/05/11 03:56:13;;;;;;;0.43;0.43;;;;;;;;;;5054726;28;20206;-84
2023/05/11 03:58:40;;;;;;;0.60;0.60;;;;;;;;;;5054578;28;20558;-86
2023/05/11 04:01:10;;;;;;;0.50;0.50;;;;;;;;;;5054003;28;20187;-86
2023/05/11 04:03:47;;;;;;;0.57;0.57;;;;;;;;;;5053499;28;20270;-86
2023/05/11 04:06:13;;;;;;;0.40;0.40;;;;;;;;;;5055218;28;20608;-85
2023/05/11 04:08:39;;;;;;;0.60;0.60;;;;;;;;;;5055161;28;20213;-85
2023/05/11 04:11:05;;;;;;;0.60;0.60;;;;;;;;;;5053556;28;20814;-85
2023/05/11 04:13:31;;;;;;;0.50;0.50;;;;;;;;;;5053122;28;20179;-85
2023/05/11 04:15:57;;;;;;;0.57;0.57;;;;;;;;;;5055631;28;20247;-85
2023/05/11 04:18:23;;;;;;;0.60;0.60;;;;;;;;;;5054806;28;20171;-85
2023/05/11 04:20:49;;;;;;;0.53;0.53;;;;;;;;;;5055294;28;20266;-84
2023/05/11 04:23:15;;;;;;;0.60;0.60;;;;;;;;;;5054802;28;20191;-85
2023/05/11 04:25:41;;;;;;;0.60;0.60;;;;;;;;;;5058745;28;20191;-85
2023/05/11 04:28:07;;;;;;;0.50;0.50;;;;;;;;;;5074835;28;20167;-84
2023/05/11 04:30:33;;;;;;;0.50;0.50;;;;;;;;;;5077602;28;20222;-84
2023/05/11 04:32:59;;;;;;;0.50;0.50;;;;;;;;;;5076851;28;20179;-84
2023/05/11 04:35:25;;;;;;;0.40;0.40;;;;;;;;;;5059997;28;20282;-85
2023/05/11 04:37:51;;;;;;;0.50;0.50;;;;;;;;;;5053983;28;20610;-85
2023/05/11 04:40:17;;;;;;;0.50;0.50;;;;;;;;;;5053903;28;20186;-84
2023/05/11 04:42:43;;;;;;;0.63;0.63;;;;;;;;;;5053305;28;20217;-85
2023/05/11 04:45:09;;;;;;;0.50;0.50;;;;;;;;;;5054307;28;20199;-85
2023/05/11 04:47:35;;;;;;;0.50;0.50;;;;;;;;;;5054214;28;20204;-84
2023/05/11 04:50:01;;;;;;;0.50;0.50;;;;;;;;;;5063284;28;20273;-85
2023/05/11 04:52:27;;;;;;;0.50;0.50;;;;;;;;;;5072923;28;20193;-85
2023/05/11 04:54:53;;;;;;;0.70;0.70;;;;;;;;;;5073452;28;20210;-85
2023/05/11 04:57:19;;;;;;;0.50;0.50;;;;;;;;;;5075748;28;20241;-85
2023/05/11 04:59:45;;;;;;;0.50;0.50;;;;;;;;;;5072378;28;20225;-85
2023/05/11 05:02:11;;;;;;;0.60;0.60;;;;;;;;;;5073836;28;20171;-85
2023/05/11 05:04:37;;;;;;;0.50;0.50;;;;;;;;;;5075707;28;20198;-85
2023/05/11 05:07:03;;;;;;;0.50;0.50;;;;;;;;;;5074242;28;20537;-85
2023/05/11 05:09:29;;;;;;;0.50;0.50;;;;;;;;;;5071445;28;20178;-82
2023/05/11 05:11:55;;;;;;;0.50;0.50;;;;;;;;;;5055653;28;20227;-85
2023/05/11 05:14:21;;;;;;;0.50;0.50;;;;;;;;;;5053910;28;20262;-85
2023/05/11 05:16:48;;;;;;;0.50;0.50;;;;;;;;;;5053811;28;20258;-84
2023/05/11 05:19:13;;;;;;;0.60;0.60;;;;;;;;;;5052812;28;20167;-84
2023/05/11 05:21:40;;;;;;;0.50;0.50;;;;;;;;;;5052473;28;20187;-84
2023/05/11 05:24:09;;;;;;;0.63;0.63;;;;;;;;;;5052240;28;20248;-87
2023/05/11 05:26:35;;;;;;;0.53;0.53;;;;;;;;;;5054554;28;20258;-84
2023/05/11 05:29:01;;;;;;;0.53;0.53;;;;;;;;;;5052424;28;20650;-83
2023/05/11 05:31:27;;;;;;;0.60;0.60;;;;;;;;;;5052551;28;20288;-83
2023/05/11 05:33:55;;;;;;;0.43;0.43;;;;;;;;;;5051833;28;20250;-83
2023/05/11 05:36:20;;;;;;;0.50;0.50;;;;;;;;;;5052741;28;20274;-86
2023/05/11 05:38:46;;;;;;;0.50;0.50;;;;;;;;;;5053122;28;20167;-83
2023/05/11 05:41:12;;;;;;;0.50;0.50;;;;;;;;;;5052238;28;20248;-84
2023/05/11 05:43:38;;;;;;;0.70;0.70;;;;;;;;;;5052259;28;20202;-83
2023/05/11 05:46:05;;;;;;;0.60;0.60;;;;;;;;;;5053147;28;20182;-83
2023/05/11 05:48:31;;;;;;;0.47;0.47;;;;;;;;;;5053291;28;20175;-85
2023/05/11 05:50:59;;;;;;;0.50;0.50;;;;;;;;;;5057446;28;20207;-86
2023/05/11 05:53:25;;;;;;;0.50;0.50;;;;;;;;;;5070906;28;20179;-85
2023/05/11 05:55:50;;;;;;;0.43;0.43;;;;;;;;;;5071818;28;20645;-84
2023/05/11 05:58:16;;;;;;;0.50;0.50;;;;;;;;;;5076413;28;20167;-83
2023/05/11 06:00:42;;;;;;;0.40;0.40;;;;;;;;;;5075981;28;20705;-83
2023/05/11 06:03:08;;;;;;;0.50;0.50;;;;;;;;;;5074494;28;20189;-84
2023/05/11 06:05:34;;;;;;;0.50;0.50;;;;;;;;;;5076127;28;20669;-83
2023/05/11 06:08:00;;;;;;;0.50;0.50;;;;;;;;;;5075341;28;20182;-81
2023/05/11 06:10:27;;;;;;;0.50;0.50;;;;;;;;;;5076301;28;20653;-86
2023/05/11 06:12:56;;;;;;;0.50;0.50;;;;;;;;;;5073282;28;20179;-87
2023/05/11 06:15:22;;;;;;;0.50;0.50;;;;;;;;;;5073964;28;20653;-89
2023/05/11 06:17:48;;;;;;;0.60;0.60;;;;;;;;;;5076365;28;20174;-86
2023/05/11 06:20:14;;;;;;;0.50;0.50;;;;;;;;;;5076379;28;20209;-89
2023/05/11 06:22:41;;;;;;;0.50;0.50;;;;;;;;;;5070602;28;20548;-85
2023/05/11 06:25:07;;;;;;;0.50;0.50;;;;;;;;;;5074800;28;20670;-85
2023/05/11 06:27:33;;;;;;;0.50;0.50;;;;;;;;;;5068144;28;20552;-84
2023/05/11 06:29:59;;;;;;;0.50;0.50;;;;;;;;;;5065871;28;20224;-83
2023/05/11 06:32:25;;;;;;;0.50;0.50;;;;;;;;;;5060391;28;20211;-84
2023/05/11 06:34:51;;;;;;;0.43;0.43;;;;;;;;;;5064869;28;20221;-88
2023/05/11 06:37:19;;;;;;;0.50;0.50;;;;;;;;;;5075999;28;20200;-86
2023/05/11 06:39:46;;;;;;;0.40;0.40;;;;;;;;;;5079735;28;20628;-87
2023/05/11 06:42:12;;;;;;;0.50;0.50;;;;;;;;;;5070066;28;20177;-83
2023/05/11 06:44:40;;;;;;;0.50;0.50;;;;;;;;;;5065531;28;20190;-85
2023/05/11 06:47:07;;;;;;;0.60;0.60;;;;;;;;;;5069204;28;20650;-86
2023/05/11 06:49:33;;;;;;;0.30;0.30;;;;;;;;;;5073946;28;20198;-84
2023/05/11 06:51:59;;;;;;;0.60;0.60;;;;;;;;;;5071538;28;20202;-84
2023/05/11 06:54:25;;;;;;;0.50;0.50;;;;;;;;;;5072384;28;20649;-84
2023/05/11 06:56:51;;;;;;;0.40;0.40;;;;;;;;;;5073666;28;20182;-85
2023/05/11 06:59:18;;;;;;;0.40;0.40;;;;;;;;;;5074404;28;20577;-86
2023/05/11 07:01:44;;;;;;;0.40;0.40;;;;;;;;;;5080443;28;20249;-86
2023/05/11 07:04:10;;;;;;;0.50;0.50;;;;;;;;;;5098278;28;20322;-85
2023/05/11 07:06:36;;;;;;;0.40;0.40;;;;;;;;;;5078699;28;20174;-86
2023/05/11 07:09:02;;;;;;;0.40;0.40;;;;;;;;;;5077172;28;20265;-86
2023/05/11 07:11:28;;;;;;;0.50;0.50;;;;;;;;;;5075226;28;20218;-86
2023/05/11 07:13:54;;;;;;;0.57;0.57;;;;;;;;;;5074962;28;20236;-85
2023/05/11 07:16:20;;;;;;;0.40;0.40;;;;;;;;;;5068212;28;20182;-83
2023/05/11 07:18:46;;;;;;;0.33;0.33;;;;;;;;;;5069572;28;20175;-85
2023/05/11 07:21:12;;;;;;;0.40;0.40;;;;;;;;;;5055954;28;20240;-87
2023/05/11 07:23:38;;;;;;;0.50;0.50;;;;;;;;;;5055539;28;20215;-87
2023/05/11 07:26:07;;;;;;;0.40;0.40;;;;;;;;;;5054772;28;20183;-86
2023/05/11 07:28:34;;;;;;;0.50;0.50;;;;;;;;;;5055417;28;20175;-86
2023/05/11 07:31:00;;;;;;;0.50;0.50;;;;;;;;;;5056667;28;20207;-86
2023/05/11 07:33:26;;;;;;;0.40;0.40;;;;;;;;;;5065935;28;20167;-87
2023/05/11 07:35:52;;;;;;;0.40;0.40;;;;;;;;;;5064372;28;20175;-87
2023/05/11 07:38:18;;;;;;;0.50;0.50;;;;;;;;;;5055059;28;20186;-87
2023/05/11 07:40:44;;;;;;;0.43;0.43;;;;;;;;;;5055015;28;20255;-87
2023/05/11 07:43:10;;;;;;;0.40;0.40;;;;;;;;;;5052787;28;20210;-88
2023/05/11 07:45:36;;;;;;;0.43;0.43;;;;;;;;;;5054565;28;20219;-87
2023/05/11 07:48:03;;;;;;;0.40;0.40;;;;;;;;;;5054379;28;20182;-87
2023/05/11 07:50:29;;;;;;;0.57;0.57;;;;;;;;;;5054559;28;20277;-88
2023/05/11 07:52:55;;;;;;;0.47;0.47;;;;;;;;;;5053532;28;20178;-87
2023/05/11 07:55:23;;;;;;;0.50;0.50;;;;;;;;;;5054214;28;20275;-88
2023/05/11 07:57:50;;;;;;;0.50;0.50;;;;;;;;;;5056148;28;20545;-88
2023/05/11 08:00:16;;;;;;;0.43;0.43;;;;;;;;;;5055370;28;20171;-89
2023/05/11 08:02:42;;;;;;;0.50;0.50;;;;;;;;;;5055063;28;20183;-88
2023/05/11 08:05:08;;;;;;;0.40;0.40;;;;;;;;;;5054248;28;20199;-87
2023/05/11 08:07:34;;;;;;;0.50;0.50;;;;;;;;;;5054049;28;20198;-87
2023/05/11 08:10:00;;;;;;;0.50;0.50;;;;;;;;;;5054337;28;20195;-87
2023/05/11 08:12:26;;;;;;;0.50;0.50;;;;;;;;;;5053856;28;20288;-87
2023/05/11 08:14:52;;;;;;;0.50;0.50;;;;;;;;;;5053221;28;20199;-87
2023/05/11 08:17:18;;;;;;;0.40;0.40;;;;;;;;;;5053409;28;20210;-85
2023/05/11 08:19:44;;;;;;;0.40;0.40;;;;;;;;;;5053900;28;20603;-86
2023/05/11 08:22:10;;;;;;;0.50;0.50;;;;;;;;;;5054337;28;20182;-86
2023/05/11 08:24:36;;;;;;;0.43;0.43;;;;;;;;;;5054236;28;20199;-85
2023/05/11 08:27:02;;;;;;;0.40;0.40;;;;;;;;;;5054031;28;20329;-85
2023/05/11 08:29:28;;;;;;;0.53;0.53;;;;;;;;;;5062686;28;20237;-83
2023/05/11 08:31:54;;;;;;;0.50;0.50;;;;;;;;;;5089408;28;20262;-83
2023/05/11 08:34:21;;;;;;;0.40;0.40;;;;;;;;;;5096985;28;20233;-82
2023/05/11 08:36:48;;;;;;;0.50;0.50;;;;;;;;;;5080925;28;20266;-84
2023/05/11 08:39:14;;;;;;;0.60;0.60;;;;;;;;;;5076018;28;20223;-86
2023/05/11 08:41:40;;;;;;;0.40;0.40;;;;;;;;;;5076785;28;20181;-84
2023/05/11 08:44:06;;;;;;;0.40;0.40;;;;;;;;;;5073899;28;20191;-82
2023/05/11 08:46:34;;;;;;;0.50;0.50;;;;;;;;;;5073270;28;20178;-85
2023/05/11 08:49:00;;;;;;;0.57;0.57;;;;;;;;;;5072973;28;20171;-85
2023/05/11 08:51:27;;;;;;;0.50;0.50;;;;;;;;;;5073263;28;20217;-84
2023/05/11 08:53:53;;;;;;;0.50;0.50;;;;;;;;;;5072783;28;20604;-87
2023/05/11 08:56:21;;;;;;;0.50;0.50;;;;;;;;;;5072483;28;20181;-86
2023/05/11 08:58:47;;;;;;;0.50;0.50;;;;;;;;;;5072775;28;20202;-84
2023/05/11 09:01:13;;;;;;;0.60;0.60;;;;;;;;;;5069982;28;20198;-87
2023/05/11 09:03:40;;;;;;;0.50;0.50;;;;;;;;;;5064818;28;20194;-86
2023/05/11 09:06:07;;;;;;;0.40;0.40;;;;;;;;;;5070624;28;20198;-87
2023/05/11 09:08:35;;;;;;;0.47;0.47;;;;;;;;;;5072928;28;20174;-85
2023/05/11 09:11:01;;;;;;;0.50;0.50;;;;;;;;;;5065146;28;20253;-87
2023/05/11 09:13:27;;;;;;;0.50;0.50;;;;;;;;;;5059522;28;20178;-87
2023/05/11 09:15:53;;;;;;;0.47;0.47;;;;;;;;;;5066125;28;20179;-86
2023/05/11 09:18:19;;;;;;;0.57;0.57;;;;;;;;;;5053371;28;20168;-86
2023/05/11 09:20:45;;;;;;;0.50;0.50;;;;;;;;;;5057143;28;20225;-87
2023/05/11 09:23:15;;;;;;;0.50;0.50;;;;;;;;;;5065466;28;20178;-87
2023/05/11 09:25:41;;;;;;;0.50;0.50;;;;;;;;;;5061054;28;20277;-87
2023/05/11 09:28:11;;;;;;;0.40;0.40;;;;;;;;;;5063594;28;20242;-87
2023/05/11 09:30:37;;;;;;;0.47;0.47;;;;;;;;;;5060281;28;20592;-88
2023/05/11 09:33:03;;;;;;;0.40;0.40;;;;;;;;;;5052575;28;20179;-86
2023/05/11 09:35:29;;;;;;;0.50;0.50;;;;;;;;;;5052002;28;20261;-88
2023/05/11 09:37:58;;;;;;;0.50;0.50;;;;;;;;;;5051234;28;20193;-86
2023/05/11 09:40:24;;;;;;;0.50;0.50;;;;;;;;;;5067039;28;20186;-86
2023/05/11 09:42:50;;;;;;;0.50;0.50;;;;;;;;;;5054998;28;20207;-86
2023/05/11 09:45:35;;;;;;;0.60;0.60;;;;;;;;;;5068123;28;20214;-86
2023/05/11 09:48:02;;;;;;;0.60;0.60;;;;;;;;;;5059265;28;20657;-84
2023/05/11 09:50:32;;;;;;;0.50;0.50;;;;;;;;;;5059021;28;20346;-86
2023/05/11 09:52:58;;;;;;;0.53;0.53;;;;;;;;;;5069423;28;20620;-85
2023/05/11 09:55:24;;;;;;;0.43;0.43;;;;;;;;;;5066541;28;20194;-87
2023/05/11 09:57:54;;;;;;;0.40;0.40;;;;;;;;;;5051509;28;20187;-87
2023/05/11 10:00:21;;;;;;;0.43;0.43;;;;;;;;;;5052032;28;20190;-86
2023/05/11 10:02:59;;;;;;;0.50;0.50;;;;;;;;;;5070263;28;20186;-82
2023/05/11 10:05:25;;;;;;;0.40;0.40;;;;;;;;;;5072460;28;20221;-83
2023/05/11 10:08:17;;;;;;;0.57;0.57;;;;;;;;;;5063666;28;20194;-84
2023/05/11 10:10:44;;;;;;;0.33;0.33;;;;;;;;;;5065409;28;20218;-84
2023/05/11 10:13:10;;;;;;;0.40;0.40;;;;;;;;;;5055308;28;20174;-83
2023/05/11 10:15:36;;;;;;;0.57;0.57;;;;;;;;;;5070886;28;20589;-83
2023/05/11 10:18:03;;;;;;;0.67;0.67;;;;;;;;;;5065451;28;20280;-85
2023/05/11 10:20:29;;;;;;;0.47;0.47;;;;;;;;;;5063024;28;20699;-84
2023/05/11 10:22:55;;;;;;;0.50;0.50;;;;;;;;;;5081033;28;20543;-84
2023/05/11 10:25:22;;;;;;;0.50;0.50;;;;;;;;;;5065599;28;20643;-83
2023/05/11 10:27:48;;;;;;;0.60;0.60;;;;;;;;;;5073096;28;20206;-82
2023/05/11 10:30:15;;;;;;;0.50;0.50;;;;;;;;;;5067524;28;20179;-83
2023/05/11 10:32:41;;;;;;;0.40;0.40;;;;;;;;;;5062912;28;20191;-83
2023/05/11 10:35:08;;;;;;;0.40;0.40;;;;;;;;;;5074107;28;20280;-82
2023/05/11 10:37:35;;;;;;;0.60;0.60;;;;;;;;;;5064089;28;20182;-86
2023/05/11 10:40:01;;;;;;;0.50;0.50;;;;;;;;;;5071469;28;20221;-84
2023/05/11 10:42:35;;;;;;;0.50;0.50;;;;;;;;;;5071788;28;20174;-83
2023/05/11 10:45:20;;;;;;;0.40;0.40;;;;;;;;;;5067915;28;20333;-83
2023/05/11 10:47:49;;;;;;;0.40;0.40;;;;;;;;;;5072186;28;20649;-85
2023/05/11 10:50:34;;;;;;;0.50;0.50;;;;;;;;;;5071124;28;20666;-81
2023/05/11 10:53:12;;;;;;;0.50;0.50;;;;;;;;;;5071080;28;20285;-83
2023/05/11 10:56:01;;;;;;;0.53;0.53;;;;;;;;;;5073788;28;20202;-82
2023/05/11 10:58:50;;;;;;;0.50;0.50;;;;;;;;;;5072724;28;20175;-84
2023/05/11 11:01:28;;;;;;;0.50;0.50;;;;;;;;;;5074597;28;20295;-83
2023/05/11 11:03:59;;;;;;;0.43;0.43;;;;;;;;;;5075445;28;20281;-84
2023/05/11 11:06:27;;;;;;;0.40;0.40;;;;;;;;;;5075760;28;20565;-82
2023/05/11 11:08:56;;;;;;;0.53;0.53;;;;;;;;;;5067251;28;20179;-83
2023/05/11 11:11:30;;;;;;;0.50;0.50;;;;;;;;;;5060692;28;20291;-84
2023/05/11 11:13:57;;;;;;;0.50;0.50;;;;;;;;;;5067730;28;20206;-84
2023/05/11 11:16:24;;;;;;;0.47;0.47;;;;;;;;;;5067152;28;20170;-83
2023/05/11 11:18:51;;;;;;;0.50;0.50;;;;;;;;;;5057586;28;20175;-82
2023/05/11 11:21:36;;;;;;;0.50;0.50;;;;;;;;;;5052756;28;20540;-83
2023/05/11 11:24:02;;;;;;;0.50;0.50;;;;;;;;;;5052931;28;20230;-80
2023/05/11 11:26:47;;;;;;;0.40;0.40;;;;;;;;;;5055159;28;20171;-81
2023/05/11 11:29:14;;;;;;;0.50;0.50;;;;;;;;;;5056247;28;20528;-81
2023/05/11 11:31:40;;;;;;;0.60;0.60;;;;;;;;;;5058292;28;20198;-82
2023/05/11 11:34:24;;;;;;;0.50;0.50;;;;;;;;;;5055851;28;20716;-79
2023/05/11 11:37:02;;;;;;;0.30;0.30;;;;;;;;;;5055392;28;20183;-81
2023/05/11 11:39:44;;;;;;;0.40;0.40;;;;;;;;;;5057066;28;20714;-80
2023/05/11 11:42:11;;;;;;;0.70;0.70;;;;;;;;;;5071904;28;20171;-79
2023/05/11 11:44:37;;;;;;;0.40;0.40;;;;;;;;;;5076261;28;20183;-79
2023/05/11 11:47:17;;;;;;;0.40;0.40;;;;;;;;;;5076315;28;20161;-80
2023/05/11 11:49:44;;;;;;;0.43;0.43;;;;;;;;;;5074112;28;20202;-82
2023/05/11 11:52:31;;;;;;;0.47;0.47;;;;;;;;;;5058730;28;20199;-82
2023/05/11 11:55:01;;;;;;;0.30;0.30;;;;;;;;;;5049620;28;20206;-80
2023/05/11 11:57:31;;;;;;;0.50;0.50;;;;;;;;;;5056840;28;20180;-82
2023/05/11 11:59:57;;;;;;;0.40;0.40;;;;;;;;;;5061449;28;20179;-83
2023/05/11 12:02:23;;;;;;;0.30;0.30;;;;;;;;;;5054415;28;20168;-84
2023/05/11 12:04:51;;;;;;;0.40;0.40;;;;;;;;;;5075555;28;20530;-83
2023/05/11 12:07:20;;;;;;;0.40;0.40;;;;;;;;;;5074959;28;20194;-82
2023/05/11 12:09:46;;;;;;;0.43;0.43;;;;;;;;;;5076781;28;20170;-84
2023/05/11 12:12:12;;;;;;;0.40;0.40;;;;;;;;;;5076176;28;20206;-83
2023/05/11 12:14:39;;;;;;;0.50;0.50;;;;;;;;;;5056345;28;20563;-84
2023/05/11 12:17:14;;;;;;;0.60;0.60;;;;;;;;;;5059848;28;20190;-83
2023/05/11 12:19:41;;;;;;;0.43;0.43;;;;;;;;;;5061180;28;20178;-82
2023/05/11 12:22:09;;;;;;;0.50;0.50;;;;;;;;;;5067366;28;20175;-82
2023/05/11 12:24:36;;;;;;;0.50;0.50;;;;;;;;;;5074078;28;20482;-81
2023/05/11 12:27:03;;;;;;;0.50;0.50;;;;;;;;;;5087366;28;20197;-80
2023/05/11 12:29:30;;;;;;;0.40;0.40;;;;;;;;;;5093828;28;20169;-80
2023/05/11 12:31:56;;;;;;;0.33;0.33;;;;;;;;;;5089581;28;20207;-81
2023/05/11 12:34:22;;;;;;;0.40;0.40;;;;;;;;;;5072933;28;20190;-80
2023/05/11 12:36:49;;;;;;;0.40;0.40;;;;;;;;;;5074840;28;20162;-79
2023/05/11 12:39:25;;;;;;;0.40;0.40;;;;;;;;;;5074911;28;20549;-81
2023/05/11 12:41:53;;;;;;;0.50;0.50;;;;;;;;;;5073095;28;20202;-83
2023/05/11 12:44:20;;;;;;;0.40;0.40;;;;;;;;;;5073581;28;20589;-83
2023/05/11 12:46:47;;;;;;;0.53;0.53;;;;;;;;;;5075209;28;20174;-85
2023/05/11 12:49:16;;;;;;;0.40;0.40;;;;;;;;;;5076427;28;20181;-82
2023/05/11 12:51:46;;;;;;;0.50;0.50;;;;;;;;;;5075445;28;20528;-81
2023/05/11 12:54:12;;;;;;;0.40;0.40;;;;;;;;;;5074982;28;20605;-82
2023/05/11 12:56:45;;;;;;;0.40;0.40;;;;;;;;;;5075911;28;20178;-81
2023/05/11 12:59:28;;;;;;;0.50;0.50;;;;;;;;;;5078480;28;20170;-83
2023/05/11 13:01:54;;;;;;;0.30;0.30;;;;;;;;;;5073443;28;20179;-82
2023/05/11 13:04:27;;;;;;;0.40;0.40;;;;;;;;;;5074569;28;20282;-81
2023/05/11 13:06:53;;;;;;;0.63;0.63;;;;;;;;;;5055449;28;20270;-80
2023/05/11 13:09:23;;;;;;;0.50;0.50;;;;;;;;;;5039672;28;20274;-85
2023/05/11 13:11:50;;;;;;;0.50;0.50;;;;;;;;;;5037089;28;20218;-83
2023/05/11 13:14:16;;;;;;;0.40;0.40;;;;;;;;;;5037530;28;20202;-83
2023/05/11 13:16:52;;;;;;;0.33;0.33;;;;;;;;;;5037477;28;20241;-82
2023/05/11 13:19:27;;;;;;;0.50;0.50;;;;;;;;;;5034492;28;20187;-81
2023/05/11 13:25:03;;;;;;;0.40;0.40;;;;;;;;;;5011085;28;20238;-90
2023/05/11 13:27:29;;;;;;;0.40;0.40;;;;;;;;;;5013323;28;20189;-92
2023/05/11 13:29:55;;;;;;;0.40;0.40;;;;;;;;;;5017097;28;20181;-94
2023/05/11 13:32:22;;;;;;;0.37;0.37;;;;;;;;;;5017320;28;20215;-93
2023/05/11 13:34:49;;;;;;;0.40;0.40;;;;;;;;;;5032090;28;20239;-93
2023/05/11 13:37:15;;;;;;;0.40;0.40;;;;;;;;;;5035542;28;20188;-90
2023/05/11 13:39:42;;;;;;;0.40;0.40;;;;;;;;;;5033478;28;20219;-92
2023/05/11 13:42:09;;;;;;;0.50;0.50;;;;;;;;;;5019869;28;20214;-91
2023/05/11 13:44:35;;;;;;;0.50;0.50;;;;;;;;;;5014316;28;20176;-91
2023/05/11 13:47:01;;;;;;;0.40;0.40;;;;;;;;;;5016159;28;20203;-90
2023/05/11 13:49:27;;;;;;;0.40;0.40;;;;;;;;;;5015962;28;20550;-90
2023/05/11 13:51:54;;;;;;;0.40;0.40;;;;;;;;;;5013035;28;20705;-90
2023/05/11 13:54:20;;;;;;;0.50;0.50;;;;;;;;;;5012431;28;20235;-90
2023/05/11 13:56:47;;;;;;;0.40;0.40;;;;;;;;;;5012862;28;20596;-88
2023/05/11 13:59:13;;;;;;;0.40;0.40;;;;;;;;;;5013641;28;20663;-90
2023/05/11 14:01:39;;;;;;;0.50;0.50;;;;;;;;;;5013068;28;20761;-88
2023/05/11 14:04:05;;;;;;;0.40;0.40;;;;;;;;;;5013236;28;20223;-89
2023/05/11 14:06:31;;;;;;;0.40;0.40;;;;;;;;;;5013392;28;20185;-87
2023/05/11 14:08:57;;;;;;;0.30;0.30;;;;;;;;;;5014627;28;20199;-90
2023/05/11 14:11:23;;;;;;;0.40;0.40;;;;;;;;;;5012811;28;20208;-92
2023/05/11 14:13:50;;;;;;;0.40;0.40;;;;;;;;;;5012536;28;20212;-90
2023/05/11 14:16:16;;;;;;;0.43;0.43;;;;;;;;;;5013756;28;20180;-92
2023/05/11 14:18:43;;;;;;;0.30;0.30;;;;;;;;;;5014172;28;20544;-91
2023/05/11 14:21:10;;;;;;;0.50;0.50;;;;;;;;;;5015491;28;20722;-91
2023/05/11 14:23:36;;;;;;;0.37;0.37;;;;;;;;;;5014382;28;20264;-88
2023/05/11 14:26:03;;;;;;;0.30;0.30;;;;;;;;;;5013761;28;20196;-91
2023/05/11 14:28:30;;;;;;;0.40;0.40;;;;;;;;;;5012909;28;20188;-92
2023/05/11 14:30:56;;;;;;;0.50;0.50;;;;;;;;;;5012857;28;20200;-92
2023/05/11 14:33:24;;;;;;;0.40;0.40;;;;;;;;;;5012046;28;20295;-90
2023/05/11 14:35:52;;;;;;;0.43;0.43;;;;;;;;;;5014613;28;20584;-91
2023/05/11 14:38:18;;;;;;;0.40;0.40;;;;;;;;;;5015815;28;20215;-91
2023/05/11 14:40:44;;;;;;;0.40;0.40;;;;;;;;;;5016197;28;20183;-91
2023/05/11 14:43:10;;;;;;;0.40;0.40;;;;;;;;;;5015984;28;20188;-90
2023/05/11 14:45:36;;;;;;;0.40;0.40;;;;;;;;;;5015817;28;20173;-91
2023/05/11 14:48:04;;;;;;;0.40;0.40;;;;;;;;;;5019392;28;20180;-91
2023/05/11 14:50:30;;;;;;;0.50;0.50;;;;;;;;;;5015840;28;20168;-90
2023/05/11 14:55:22;;;;;;;0.40;0.40;;;;;;;;;;5036947;23;20251;-93